Olpe, Kansas
Current Conditions -  °F | °C
As of 12:53 PM on Thursday 30 Oct 2014 (Local Time) from KEMP Reporting Station
Clear Clear  
Wind Chill: 69°   Ceiling: Unl
Heat Index: 69°   Visibility: 10mi
Dew Point: 36°   Wind: 20mph
Humidity: 30%   Direction: 340°NNW
Pressure: 30.08"   Gusts: 30mph
Location:  38.26°N, 96.17°W
Report Text: KEMP 301753Z AUTO 34017G26KT 10SM CLR 21/02 A3008 RMK AO2 PK WND 32029/1727 SLP186 T02060022 10206 20083 50005
Loading
Personal Weather Stations






























Interactive Weather Map
Tropical Storm Tracking
New forecast layout! Learn more

10-Day Weather Forecast

Advertisements
Track Severe Weather on mobile